Time,TemperatureF,DewpointF,PressureIn,WindDirection,WindDirectionDegrees,WindSpeedMPH,WindSpeedGustMPH,Humidity,HourlyPrecipIn,Conditions,Clouds,dailyrainin,SoftwareType,DateUTC
2013-09-30 00:14:00,50.0,49.0,30.08,ESE,119,0.0,0.0,96,0.00,,,0.00,,2013-09-30 04:14:00,
2013-09-30 00:25:00,50.0,49.0,30.08,ESE,119,0.0,0.0,97,0.00,,,0.00,,2013-09-30 04:25:00,
2013-09-30 00:53:00,50.0,49.0,30.08,ESE,119,0.0,0.0,97,0.00,,,0.00,,2013-09-30 04:53:00,
2013-09-30 01:23:00,49.0,48.0,30.08,ESE,119,0.0,0.0,97,0.00,,,0.00,,2013-09-30 05:23:00,
2013-09-30 01:52:00,48.0,47.0,30.09,ESE,119,0.0,0.0,97,0.00,,,0.00,,2013-09-30 05:52:00,
2013-09-30 02:22:00,48.0,47.0,30.09,ESE,119,0.0,0.0,97,0.00,,,0.00,,2013-09-30 06:22:00,
2013-09-30 02:32:00,48.0,47.0,30.09,ESE,119,0.0,0.0,97,0.00,,,0.00,,2013-09-30 06:32:00,
2013-09-30 02:52:00,47.0,46.0,30.08,ESE,119,0.0,0.0,98,0.00,,,0.00,,2013-09-30 06:52:00,
2013-09-30 03:12:00,47.0,46.0,30.07,ESE,119,0.0,0.0,98,0.00,,,0.00,,2013-09-30 07:12:00,
2013-09-30 03:22:00,47.0,46.0,30.07,ESE,119,0.0,0.0,98,0.00,,,0.00,,2013-09-30 07:22:00,
2013-09-30 03:53:00,47.0,46.0,30.06,ESE,119,0.0,0.0,98,0.00,,,0.00,,2013-09-30 07:53:00,
2013-09-30 04:22:00,46.0,45.0,30.07,ESE,119,0.0,0.0,98,0.00,,,0.00,,2013-09-30 08:22:00,
2013-09-30 04:52:00,46.0,45.0,30.06,ESE,119,0.0,0.0,98,0.00,,,0.00,,2013-09-30 08:52:00,
2013-09-30 05:22:00,45.0,44.0,30.07,ESE,119,0.0,0.0,98,0.00,,,0.00,,2013-09-30 09:22:00,
2013-09-30 05:33:00,45.0,44.0,30.07,ESE,119,0.0,0.0,98,0.00,,,0.00,,2013-09-30 09:33:00,
2013-09-30 05:54:00,45.0,44.0,30.08,ESE,119,0.0,0.0,98,0.00,,,0.00,,2013-09-30 09:54:00,
2013-09-30 06:23:00,44.0,43.0,30.08,ESE,119,0.0,0.0,98,0.00,,,0.00,,2013-09-30 10:23:00,
2013-09-30 06:53:00,44.0,43.0,30.08,ESE,119,0.0,0.0,98,0.00,,,0.00,,2013-09-30 10:53:00,
2013-09-30 07:03:00,44.0,43.0,30.08,ESE,119,0.0,0.0,98,0.00,,,0.00,,2013-09-30 11:03:00,
2013-09-30 07:22:00,44.0,43.0,30.09,ESE,119,0.0,0.0,98,0.00,,,0.00,,2013-09-30 11:22:00,
2013-09-30 07:52:00,44.0,44.0,30.09,ESE,119,0.0,0.0,99,0.00,,,0.00,,2013-09-30 11:52:00,
2013-09-30 08:12:00,45.0,45.0,30.09,ESE,119,0.0,1.0,99,0.00,,,0.00,,2013-09-30 12:12:00,
2013-09-30 08:22:00,45.0,45.0,30.09,ESE,119,0.0,1.0,99,0.00,,,0.00,,2013-09-30 12:22:00,
2013-09-30 08:52:00,47.0,47.0,30.09,ESE,119,0.0,0.0,100,0.00,,,0.00,,2013-09-30 12:52:00,
2013-09-30 09:22:00,53.0,53.0,30.09,ESE,119,0.0,0.0,100,0.00,,,0.00,,2013-09-30 13:22:00,
2013-09-30 09:52:00,57.0,57.0,30.09,ESE,119,0.0,1.0,100,0.00,,,0.00,,2013-09-30 13:52:00,
2013-09-30 10:02:00,57.0,57.0,30.09,ESE,119,0.0,1.0,100,0.00,,,0.00,,2013-09-30 14:02:00,
2013-09-30 10:22:00,63.0,57.0,30.08,SSE,150,0.0,2.0,81,0.00,,,0.00,,2013-09-30 14:22:00,
2013-09-30 10:53:00,67.0,54.0,30.07,South,169,0.0,3.0,64,0.00,,,0.00,,2013-09-30 14:53:00,
2013-09-30 11:23:00,70.0,57.0,30.07,SSE,148,0.0,2.0,64,0.00,,,0.00,,2013-09-30 15:23:00,
2013-09-30 11:54:00,70.0,56.0,30.06,West,280,1.0,3.0,61,0.00,,,0.00,,2013-09-30 15:54:00,
2013-09-30 12:14:00,71.0,57.0,30.06,NNW,333,0.0,2.0,62,0.00,,,0.00,,2013-09-30 16:14:00,
2013-09-30 12:24:00,71.0,57.0,30.06,NNW,333,0.0,2.0,62,0.00,,,0.00,,2013-09-30 16:24:00,
2013-09-30 12:54:00,73.0,55.0,30.04,WSW,240,2.0,3.0,54,0.00,,,0.00,,2013-09-30 16:54:00,
2013-09-30 13:23:00,73.0,53.0,30.03,NNW,333,1.0,3.0,50,0.00,,,0.00,,2013-09-30 17:23:00,
2013-09-30 13:53:00,72.0,54.0,30.02,East,94,0.0,2.0,53,0.00,,,0.00,,2013-09-30 17:53:00,
2013-09-30 14:22:00,74.0,54.0,30.01,SW,232,2.0,7.0,50,0.00,,,0.00,,2013-09-30 18:22:00,
2013-09-30 14:53:00,74.0,54.0,30.01,West,267,1.0,5.0,50,0.00,,,0.00,,2013-09-30 18:53:00,
2013-09-30 15:12:00,72.0,54.0,30.00,WNW,282,0.0,2.0,54,0.00,,,0.00,,2013-09-30 19:12:00,
2013-09-30 15:22:00,72.0,54.0,30.00,WNW,282,0.0,2.0,54,0.00,,,0.00,,2013-09-30 19:22:00,
2013-09-30 15:53:00,74.0,54.0,29.99,ENE,57,1.0,3.0,49,0.00,,,0.00,,2013-09-30 19:53:00,
2013-09-30 16:23:00,72.0,55.0,29.99,NE,36,0.0,1.0,56,0.00,,,0.00,,2013-09-30 20:23:00,
2013-09-30 16:53:00,71.0,54.0,29.99,SE,146,0.0,2.0,56,0.00,,,0.00,,2013-09-30 20:53:00,
2013-09-30 17:23:00,71.0,55.0,29.98,SSW,208,0.0,5.0,58,0.00,,,0.00,,2013-09-30 21:23:00,
2013-09-30 17:54:00,70.0,55.0,29.99,SW,223,0.0,4.0,59,0.00,,,0.00,,2013-09-30 21:54:00,
2013-09-30 18:13:00,69.0,56.0,29.99,SW,223,0.0,1.0,63,0.00,,,0.00,,2013-09-30 22:13:00,
2013-09-30 18:24:00,69.0,56.0,29.99,SW,223,0.0,1.0,63,0.00,,,0.00,,2013-09-30 22:24:00,
2013-09-30 18:54:00,64.0,56.0,29.99,SW,223,0.0,0.0,76,0.00,,,0.00,,2013-09-30 22:54:00,
2013-09-30 19:23:00,62.0,56.0,29.99,SW,223,0.0,0.0,81,0.00,,,0.00,,2013-09-30 23:23:00,
2013-09-30 19:43:00,61.0,56.0,29.99,SW,223,0.0,0.0,84,0.00,,,0.00,,2013-09-30 23:43:00,
2013-09-30 19:54:00,61.0,56.0,29.99,SW,223,0.0,0.0,84,0.00,,,0.00,,2013-09-30 23:54:00,
2013-09-30 20:03:00,61.0,56.0,29.99,SW,223,0.0,0.0,84,0.00,,,0.00,,2013-10-01 00:03:00,
2013-09-30 20:23:00,58.0,55.0,30.00,SW,223,0.0,0.0,89,0.00,,,0.00,,2013-10-01 00:23:00,
2013-09-30 20:52:00,56.0,54.0,30.01,SW,223,0.0,1.0,92,0.00,,,0.00,,2013-10-01 00:52:00,
2013-09-30 21:21:00,55.0,53.0,30.01,SW,223,0.0,0.0,93,0.00,,,0.00,,2013-10-01 01:21:00,
2013-09-30 21:52:00,54.0,52.0,30.01,SW,223,0.0,0.0,93,0.00,,,0.00,,2013-10-01 01:52:00,
2013-09-30 22:22:00,53.0,52.0,30.01,SW,223,0.0,0.0,95,0.00,,,0.00,,2013-10-01 02:22:00,
2013-09-30 22:52:00,52.0,51.0,30.02,SW,223,0.0,0.0,95,0.00,,,0.00,,2013-10-01 02:52:00,
2013-09-30 23:22:00,52.0,51.0,30.02,SW,223,0.0,0.0,95,0.00,,,0.00,,2013-10-01 03:22:00,
2013-09-30 23:55:00,51.0,50.0,30.02,SW,223,0.0,0.0,96,0.00,,,0.00,,2013-10-01 03:55:00,